createdAt,value
2019-03-23T00:00:04.444Z,7.90
2019-03-23T00:01:04.699Z,7.90
2019-03-23T00:02:04.800Z,7.90
2019-03-23T00:03:10.064Z,7.90
2019-03-23T00:04:05.068Z,7.90
2019-03-23T00:05:04.682Z,7.90
2019-03-23T00:06:04.954Z,7.80
2019-03-23T00:07:04.561Z,7.80
2019-03-23T00:08:04.268Z,7.80
2019-03-23T00:09:04.617Z,7.80
2019-03-23T00:10:05.239Z,7.70
2019-03-23T00:11:04.634Z,7.70
2019-03-23T00:12:04.792Z,7.70
2019-03-23T00:13:05.246Z,7.70
2019-03-23T00:14:04.320Z,7.70
2019-03-23T00:15:04.731Z,7.70
2019-03-23T00:16:04.411Z,7.70
2019-03-23T00:17:04.636Z,7.60
2019-03-23T00:18:04.451Z,7.60
2019-03-23T00:19:04.615Z,7.60
2019-03-23T00:20:04.490Z,7.60
2019-03-23T00:21:04.880Z,7.60
2019-03-23T00:22:05.070Z,7.60
2019-03-23T00:23:05.150Z,7.60
2019-03-23T00:24:04.799Z,7.50
2019-03-23T00:25:05.231Z,7.50
2019-03-23T00:26:04.275Z,7.50
2019-03-23T00:27:04.361Z,7.50
2019-03-23T00:28:04.771Z,7.50
2019-03-23T00:29:05.078Z,7.50
2019-03-23T00:30:04.492Z,7.50
2019-03-23T00:31:04.526Z,7.50
2019-03-23T00:32:04.601Z,7.50
2019-03-23T00:33:04.790Z,7.40
2019-03-23T00:34:04.899Z,7.40
2019-03-23T00:35:04.281Z,7.40
2019-03-23T00:36:04.983Z,7.40
2019-03-23T00:37:05.198Z,7.40
2019-03-23T00:38:04.294Z,7.40
2019-03-23T00:39:04.525Z,7.40
2019-03-23T00:40:04.563Z,7.40
2019-03-23T00:41:04.662Z,7.40
2019-03-23T00:42:04.790Z,7.40
2019-03-23T00:43:10.014Z,7.40
2019-03-23T00:44:04.528Z,7.40
2019-03-23T00:45:04.973Z,7.40
2019-03-23T00:46:05.196Z,7.40
2019-03-23T00:47:04.377Z,7.30
2019-03-23T00:48:04.434Z,7.30
2019-03-23T00:49:04.493Z,7.30
2019-03-23T00:50:04.946Z,7.30
2019-03-23T00:51:04.520Z,7.30
2019-03-23T00:52:04.649Z,7.30
2019-03-23T00:53:05.154Z,7.30
2019-03-23T00:54:04.164Z,7.20
2019-03-23T00:55:04.798Z,7.20
2019-03-23T00:56:04.552Z,7.20
2019-03-23T00:57:04.556Z,7.20
2019-03-23T00:58:04.337Z,7.20
2019-03-23T00:59:04.645Z,7.20
2019-03-23T01:00:04.823Z,7.20
2019-03-23T01:01:04.859Z,7.20
2019-03-23T01:02:04.493Z,7.20
2019-03-23T01:03:05.021Z,7.20
2019-03-23T01:04:04.676Z,7.10
2019-03-23T01:05:04.977Z,7.10
2019-03-23T01:06:05.336Z,7.10
2019-03-23T01:07:04.365Z,7.10
2019-03-23T01:08:04.998Z,7.10
2019-03-23T01:09:04.622Z,7.10
2019-03-23T01:10:04.732Z,7.10
2019-03-23T01:11:04.961Z,7.10
2019-03-23T01:12:04.436Z,7.10
2019-03-23T01:13:04.587Z,7.00
2019-03-23T01:14:04.677Z,7.00
2019-03-23T01:15:05.056Z,7.00
2019-03-23T01:16:04.794Z,7.00
2019-03-23T01:17:05.062Z,7.00
2019-03-23T01:18:05.140Z,7.00
2019-03-23T01:19:04.819Z,7.00
2019-03-23T01:20:04.881Z,6.90
2019-03-23T01:21:04.336Z,6.90
2019-03-23T01:22:04.501Z,6.90
2019-03-23T01:23:04.480Z,6.90
2019-03-23T01:24:04.674Z,6.90
2019-03-23T01:25:04.963Z,6.80
2019-03-23T01:26:04.213Z,6.80
2019-03-23T01:27:04.821Z,6.80
2019-03-23T01:28:05.048Z,6.80
2019-03-23T01:29:04.541Z,6.80
2019-03-23T01:30:04.756Z,6.80
2019-03-23T01:31:05.070Z,6.80
2019-03-23T01:32:04.347Z,6.70
2019-03-23T01:33:04.632Z,6.70
2019-03-23T01:34:04.911Z,6.70
2019-03-23T01:35:05.127Z,6.70
2019-03-23T01:36:04.674Z,6.70
2019-03-23T01:37:05.134Z,6.70
2019-03-23T01:38:04.415Z,6.70
2019-03-23T01:39:05.026Z,6.70
2019-03-23T01:40:04.620Z,6.60
2019-03-23T01:41:04.850Z,6.60
2019-03-23T01:42:04.940Z,6.60
2019-03-23T01:43:04.200Z,6.60
2019-03-23T01:44:04.373Z,6.50
2019-03-23T01:45:04.959Z,6.50
2019-03-23T01:46:04.436Z,6.50
2019-03-23T01:47:04.601Z,6.50
2019-03-23T01:48:04.856Z,6.50
2019-03-23T01:49:05.141Z,6.50
2019-03-23T01:50:04.506Z,6.50
2019-03-23T01:51:04.612Z,6.50
2019-03-23T01:52:04.912Z,6.50
2019-03-23T01:53:05.215Z,6.50
2019-03-23T01:54:04.679Z,6.50
2019-03-23T01:55:04.947Z,6.50
2019-03-23T01:56:04.383Z,6.50
2019-03-23T01:57:04.663Z,6.50
2019-03-23T01:58:04.747Z,6.50
2019-03-23T01:59:09.908Z,6.50
2019-03-23T02:00:04.304Z,6.50
2019-03-23T02:01:04.571Z,6.50
2019-03-23T02:02:04.737Z,6.40
2019-03-23T02:03:04.762Z,6.40
2019-03-23T02:04:04.373Z,6.40
2019-03-23T02:05:04.511Z,6.40
2019-03-23T02:06:04.841Z,6.40
2019-03-23T02:07:13.327Z,6.40
2019-03-23T02:08:04.881Z,6.40
2019-03-23T02:09:04.941Z,6.30
2019-03-23T02:10:05.171Z,6.30
2019-03-23T02:11:05.155Z,6.30
2019-03-23T02:12:04.532Z,6.30
2019-03-23T02:13:04.644Z,6.20
2019-03-23T02:14:04.301Z,6.30
2019-03-23T02:15:04.831Z,6.20
2019-03-23T02:16:05.045Z,6.20
2019-03-23T02:17:05.126Z,6.20
2019-03-23T02:18:04.547Z,6.20
2019-03-23T02:19:04.734Z,6.20
2019-03-23T02:20:04.342Z,6.20
2019-03-23T02:21:04.535Z,6.20
2019-03-23T02:22:04.664Z,6.20
2019-03-23T02:23:04.908Z,6.20
2019-03-23T02:24:04.632Z,6.20
2019-03-23T02:25:04.747Z,6.20
2019-03-23T02:26:04.938Z,6.20
2019-03-23T02:27:04.511Z,6.20
2019-03-23T02:28:04.971Z,6.20
2019-03-23T02:29:05.097Z,6.20
2019-03-23T02:30:04.578Z,6.20
2019-03-23T02:31:07.137Z,6.10
2019-03-23T02:32:05.019Z,6.10
2019-03-23T02:33:04.360Z,6.10
2019-03-23T02:34:04.703Z,6.10
2019-03-23T02:35:05.063Z,6.10
2019-03-23T02:36:04.332Z,6.10
2019-03-23T02:37:04.741Z,6.00
2019-03-23T02:38:04.268Z,6.00
2019-03-23T02:39:04.662Z,6.00
2019-03-23T02:40:04.869Z,6.00
2019-03-23T02:41:04.268Z,6.00
2019-03-23T02:42:04.533Z,6.00
2019-03-23T02:43:09.595Z,6.00
2019-03-23T02:44:05.060Z,6.00
2019-03-23T02:45:05.088Z,6.00
2019-03-23T02:46:04.411Z,6.00
2019-03-23T02:47:04.906Z,5.90
2019-03-23T02:48:04.704Z,5.90
2019-03-23T02:49:04.978Z,5.90
2019-03-23T02:50:04.418Z,5.90
2019-03-23T02:51:04.647Z,5.90
2019-03-23T02:52:04.965Z,5.90
2019-03-23T02:53:05.196Z,5.90
2019-03-23T02:54:05.054Z,5.90
2019-03-23T02:55:04.415Z,5.90
2019-03-23T02:56:04.524Z,5.90
2019-03-23T02:57:04.668Z,5.80
2019-03-23T02:58:04.973Z,5.80
2019-03-23T02:59:04.736Z,5.80
2019-03-23T03:00:04.255Z,5.80
2019-03-23T03:01:04.375Z,5.80
2019-03-23T03:02:04.787Z,5.70
2019-03-23T03:03:04.508Z,5.70
2019-03-23T03:04:04.740Z,5.70
2019-03-23T03:05:05.014Z,5.70
2019-03-23T03:06:04.935Z,5.70
2019-03-23T03:07:04.350Z,5.70
2019-03-23T03:08:04.743Z,5.70
2019-03-23T03:09:04.841Z,5.70
2019-03-23T03:10:04.907Z,5.70
2019-03-23T03:11:04.574Z,5.70
2019-03-23T03:12:04.797Z,5.60
2019-03-23T03:13:04.851Z,5.60
2019-03-23T03:14:04.664Z,5.60
2019-03-23T03:15:04.761Z,5.60
2019-03-23T03:16:05.080Z,5.60
2019-03-23T03:17:04.456Z,5.60
2019-03-23T03:18:04.313Z,5.60
2019-03-23T03:19:04.702Z,5.50
2019-03-23T03:20:04.843Z,5.50
2019-03-23T03:21:04.313Z,5.50
2019-03-23T03:22:04.570Z,5.50
2019-03-23T03:23:04.634Z,5.50
2019-03-23T03:24:04.746Z,5.50
2019-03-23T03:25:05.044Z,5.50
2019-03-23T03:26:04.883Z,5.50
2019-03-23T03:27:04.434Z,5.50
2019-03-23T03:28:04.794Z,5.50
2019-03-23T03:29:04.784Z,5.50
2019-03-23T03:30:04.498Z,5.50
2019-03-23T03:31:04.918Z,5.50
2019-03-23T03:32:04.518Z,5.50
2019-03-23T03:33:04.660Z,5.50
2019-03-23T03:34:05.034Z,5.50
2019-03-23T03:35:04.448Z,5.50
2019-03-23T03:36:04.559Z,5.50
2019-03-23T03:37:04.296Z,5.50
2019-03-23T03:38:04.776Z,5.50
2019-03-23T03:39:04.322Z,5.40
2019-03-23T03:40:04.542Z,5.40
2019-03-23T03:41:04.787Z,5.40
2019-03-23T03:42:05.018Z,5.40
2019-03-23T03:43:09.325Z,5.40
2019-03-23T03:44:04.777Z,5.40
2019-03-23T03:45:04.366Z,5.40
2019-03-23T03:46:04.737Z,5.40
2019-03-23T03:47:04.478Z,5.40
2019-03-23T03:48:05.145Z,5.40
2019-03-23T03:49:12.051Z,5.40
2019-03-23T03:50:04.665Z,5.40
2019-03-23T03:51:04.820Z,5.40
2019-03-23T03:52:04.931Z,5.40
2019-03-23T03:53:04.592Z,5.40
2019-03-23T03:54:04.909Z,5.40
2019-03-23T03:55:04.978Z,5.40
2019-03-23T03:56:04.592Z,5.40
2019-03-23T03:57:04.966Z,5.30
2019-03-23T03:58:04.645Z,5.30
2019-03-23T03:59:04.978Z,5.30
2019-03-23T04:00:04.459Z,5.30
2019-03-23T04:01:04.950Z,5.30
2019-03-23T04:02:04.434Z,5.30
2019-03-23T04:03:10.098Z,5.30
2019-03-23T04:04:04.514Z,5.30
2019-03-23T04:05:04.848Z,5.30
2019-03-23T04:06:04.360Z,5.30
2019-03-23T04:07:04.907Z,5.20
2019-03-23T04:08:10.771Z,5.30
2019-03-23T04:09:04.625Z,5.20
2019-03-23T04:10:04.901Z,5.20
2019-03-23T04:11:04.970Z,5.20
2019-03-23T04:12:04.681Z,5.20
2019-03-23T04:13:04.771Z,5.20
2019-03-23T04:14:05.022Z,5.20
2019-03-23T04:15:04.530Z,5.20
2019-03-23T04:16:04.943Z,5.20
2019-03-23T04:17:05.061Z,5.20
2019-03-23T04:18:05.223Z,5.20
2019-03-23T04:19:04.345Z,5.20
2019-03-23T04:20:04.571Z,5.20
2019-03-23T04:21:04.626Z,5.20
2019-03-23T04:22:04.327Z,5.20
2019-03-23T04:23:04.412Z,5.20
2019-03-23T04:24:05.051Z,5.20
2019-03-23T04:25:04.589Z,5.20
2019-03-23T04:26:04.825Z,5.10
2019-03-23T04:27:04.560Z,5.10
2019-03-23T04:28:05.054Z,5.10
2019-03-23T04:29:05.149Z,5.10
2019-03-23T04:30:04.232Z,5.10
2019-03-23T04:31:04.516Z,5.00
2019-03-23T04:32:05.088Z,5.00
2019-03-23T04:33:04.804Z,5.00
2019-03-23T04:34:04.895Z,5.00
2019-03-23T04:35:04.294Z,5.00
2019-03-23T04:36:04.536Z,4.90
2019-03-23T04:37:04.672Z,4.90
2019-03-23T04:38:04.966Z,4.90
2019-03-23T04:39:04.317Z,4.90
2019-03-23T04:40:04.593Z,4.90
2019-03-23T04:41:04.743Z,4.90
2019-03-23T04:42:05.063Z,4.90
2019-03-23T04:43:04.239Z,4.90
2019-03-23T04:44:04.473Z,4.90
2019-03-23T04:45:04.871Z,4.90
2019-03-23T04:46:05.008Z,4.90
2019-03-23T04:47:04.201Z,4.90
2019-03-23T04:48:04.617Z,4.90
2019-03-23T04:49:09.413Z,4.90
2019-03-23T04:50:04.908Z,4.90
2019-03-23T04:51:05.160Z,4.90
2019-03-23T04:52:04.694Z,4.90
2019-03-23T04:53:04.808Z,4.90
2019-03-23T04:54:04.886Z,4.90
2019-03-23T04:55:05.127Z,4.90
2019-03-23T04:56:04.259Z,4.90
2019-03-23T04:57:04.523Z,4.80
2019-03-23T04:58:04.807Z,4.80
2019-03-23T04:59:05.161Z,4.80
2019-03-23T05:00:04.737Z,4.80
2019-03-23T05:01:04.445Z,4.80
2019-03-23T05:02:04.362Z,4.80
2019-03-23T05:03:04.652Z,4.70
2019-03-23T05:04:04.978Z,4.70
2019-03-23T05:05:04.326Z,4.70
2019-03-23T05:06:04.598Z,4.70
2019-03-23T05:07:04.459Z,4.70
2019-03-23T05:08:04.519Z,4.70
2019-03-23T05:09:09.752Z,4.70
2019-03-23T05:10:04.291Z,4.70
2019-03-23T05:11:05.013Z,4.70
2019-03-23T05:12:05.260Z,4.70
2019-03-23T05:13:04.512Z,4.70
2019-03-23T05:14:04.866Z,4.70
2019-03-23T05:15:04.464Z,4.70
2019-03-23T05:16:05.160Z,4.70
2019-03-23T05:17:04.252Z,4.70
2019-03-23T05:18:04.492Z,4.70
2019-03-23T05:19:04.619Z,4.70
2019-03-23T05:20:05.079Z,4.70
2019-03-23T05:21:04.496Z,4.70
2019-03-23T05:22:04.773Z,4.60
2019-03-23T05:23:04.727Z,4.60
2019-03-23T05:24:04.561Z,4.70
2019-03-23T05:25:04.970Z,4.70
2019-03-23T05:26:04.712Z,4.60
2019-03-23T05:27:05.132Z,4.70
2019-03-23T05:28:04.716Z,4.70
2019-03-23T05:29:05.024Z,4.70
2019-03-23T05:30:05.259Z,4.70
2019-03-23T05:31:04.352Z,4.70
2019-03-23T05:32:04.860Z,4.70
2019-03-23T05:33:05.108Z,4.70
2019-03-23T05:34:04.470Z,4.70
2019-03-23T05:35:04.709Z,4.70
2019-03-23T05:36:05.290Z,4.70
2019-03-23T05:37:04.438Z,4.70
2019-03-23T05:38:05.263Z,4.70
2019-03-23T05:39:05.021Z,4.70
2019-03-23T05:40:05.029Z,4.70
2019-03-23T05:41:05.006Z,4.80
2019-03-23T05:42:04.618Z,4.80
2019-03-23T05:43:04.234Z,4.90
2019-03-23T05:44:04.491Z,4.90
2019-03-23T05:45:05.193Z,5.00
2019-03-23T05:46:04.329Z,5.00
2019-03-23T05:47:04.502Z,5.10
2019-03-23T05:48:05.135Z,5.10
2019-03-23T05:49:04.490Z,5.20
2019-03-23T05:50:04.628Z,5.20
2019-03-23T05:51:04.863Z,5.30
2019-03-23T05:52:04.938Z,5.40
2019-03-23T05:53:04.253Z,5.40
2019-03-23T05:54:04.845Z,5.50
2019-03-23T05:55:04.415Z,5.50
2019-03-23T05:56:04.739Z,5.60
2019-03-23T05:57:09.936Z,5.70
2019-03-23T05:58:04.547Z,5.90
2019-03-23T05:59:04.584Z,6.00
2019-03-23T06:00:04.336Z,6.10
2019-03-23T06:01:04.790Z,6.20
2019-03-23T06:02:04.875Z,6.40
2019-03-23T06:03:04.514Z,6.50
2019-03-23T06:04:05.056Z,6.70
2019-03-23T06:05:04.815Z,6.80
2019-03-23T06:06:05.202Z,7.00
2019-03-23T06:07:04.208Z,7.20
2019-03-23T06:08:04.392Z,7.30
2019-03-23T06:09:04.829Z,7.50
2019-03-23T06:10:04.478Z,7.70
2019-03-23T06:11:04.725Z,7.80
2019-03-23T06:12:05.287Z,8.00
2019-03-23T06:13:04.482Z,8.10
2019-03-23T06:14:05.101Z,8.30
2019-03-23T06:15:04.852Z,8.40
2019-03-23T06:16:05.084Z,8.60
2019-03-23T06:17:04.470Z,8.70
2019-03-23T06:18:04.473Z,8.80
2019-03-23T06:19:05.262Z,9.00
2019-03-23T06:20:04.750Z,9.10
2019-03-23T06:21:04.697Z,9.20
2019-03-23T06:22:04.776Z,9.40
2019-03-23T06:23:04.454Z,9.50
2019-03-23T06:24:04.676Z,9.60
2019-03-23T06:25:04.546Z,9.70
2019-03-23T06:26:06.407Z,9.90
2019-03-23T06:27:04.382Z,10.00
2019-03-23T06:28:04.423Z,10.10
2019-03-23T06:29:04.696Z,10.20
2019-03-23T06:30:05.013Z,10.30
2019-03-23T06:31:05.067Z,10.40
2019-03-23T06:32:04.712Z,10.50
2019-03-23T06:33:04.940Z,10.60
2019-03-23T06:34:04.718Z,10.70
2019-03-23T06:35:05.136Z,10.90
2019-03-23T06:36:05.231Z,11.00
2019-03-23T06:37:04.566Z,11.10
2019-03-23T06:38:04.789Z,11.20
2019-03-23T06:39:05.579Z,11.30
2019-03-23T06:40:04.487Z,11.40
2019-03-23T06:41:04.243Z,11.50
2019-03-23T06:42:04.539Z,11.60
2019-03-23T06:43:04.748Z,11.70
2019-03-23T06:44:04.755Z,11.80
2019-03-23T06:45:04.222Z,11.90
2019-03-23T06:46:05.051Z,11.90
2019-03-23T06:47:05.212Z,12.00
2019-03-23T06:48:09.871Z,12.10
2019-03-23T06:49:04.324Z,12.20
2019-03-23T06:50:04.672Z,12.30
2019-03-23T06:51:04.986Z,12.30
2019-03-23T06:52:04.644Z,12.40
2019-03-23T06:53:04.706Z,12.50
2019-03-23T06:54:04.505Z,12.50
2019-03-23T06:55:05.156Z,12.60
2019-03-23T06:56:05.568Z,12.70
2019-03-23T06:57:04.447Z,12.70
2019-03-23T06:58:05.055Z,12.80
2019-03-23T06:59:05.152Z,12.80
2019-03-23T07:00:04.765Z,12.80
2019-03-23T07:01:04.994Z,12.90
2019-03-23T07:02:05.229Z,13.00
2019-03-23T07:03:04.378Z,13.00
2019-03-23T07:04:04.654Z,13.10
2019-03-23T07:05:04.725Z,13.20
2019-03-23T07:06:04.713Z,13.20
2019-03-23T07:07:04.402Z,13.20
2019-03-23T07:08:04.658Z,13.30
2019-03-23T07:09:15.484Z,13.40
2019-03-23T07:10:05.202Z,13.40
2019-03-23T07:11:04.752Z,13.40
2019-03-23T07:12:05.287Z,13.50
2019-03-23T07:13:04.453Z,13.50
2019-03-23T07:14:05.007Z,13.50
2019-03-23T07:15:05.142Z,13.60
2019-03-23T07:16:05.160Z,13.60
2019-03-23T07:17:04.564Z,13.70
2019-03-23T07:18:04.602Z,13.70
2019-03-23T07:19:05.061Z,13.70
2019-03-23T07:20:04.567Z,13.80
2019-03-23T07:21:04.580Z,13.80
2019-03-23T07:22:04.806Z,13.80
2019-03-23T07:23:05.263Z,13.90
2019-03-23T07:24:04.413Z,13.90
2019-03-23T07:25:04.610Z,13.90
2019-03-23T07:26:04.862Z,13.90
2019-03-23T07:27:04.670Z,14.00
2019-03-23T07:28:04.743Z,14.00
2019-03-23T07:29:04.733Z,14.00
2019-03-23T07:30:04.993Z,14.00
2019-03-23T07:31:04.321Z,14.00
2019-03-23T07:32:05.813Z,14.00
2019-03-23T07:33:05.022Z,14.00
2019-03-23T07:34:06.165Z,14.10
2019-03-23T07:35:04.288Z,14.10
2019-03-23T07:36:04.414Z,14.10
2019-03-23T07:37:04.983Z,14.10
2019-03-23T07:38:04.983Z,14.10
2019-03-23T07:39:04.710Z,14.10
2019-03-23T07:40:04.345Z,14.20
2019-03-23T07:41:04.619Z,14.20
2019-03-23T07:42:05.213Z,14.20
2019-03-23T07:43:09.673Z,14.20
2019-03-23T07:44:05.183Z,14.20
2019-03-23T07:45:05.076Z,14.20
2019-03-23T07:46:04.945Z,14.20
2019-03-23T07:47:04.612Z,14.20
2019-03-23T07:48:04.977Z,14.20
2019-03-23T07:49:04.382Z,14.20
2019-03-23T07:50:04.792Z,14.20
2019-03-23T07:51:04.931Z,14.20
2019-03-23T07:52:05.037Z,14.20
2019-03-23T07:53:04.700Z,14.20
2019-03-23T07:54:05.221Z,14.20
2019-03-23T07:55:04.410Z,14.20
2019-03-23T07:56:04.604Z,14.20
2019-03-23T07:57:04.914Z,14.30
2019-03-23T07:58:04.292Z,14.30
2019-03-23T07:59:04.514Z,14.30
2019-03-23T08:00:04.746Z,14.30
2019-03-23T08:01:04.401Z,14.40
2019-03-23T08:02:04.824Z,14.40
2019-03-23T08:03:09.995Z,14.40
2019-03-23T08:04:04.403Z,14.50
2019-03-23T08:05:04.977Z,14.50
2019-03-23T08:06:04.225Z,14.50
2019-03-23T08:07:04.952Z,14.50
2019-03-23T08:08:05.031Z,14.60
2019-03-23T08:09:04.477Z,14.60
2019-03-23T08:10:05.144Z,14.60
2019-03-23T08:11:04.535Z,14.60
2019-03-23T08:12:05.354Z,14.70
2019-03-23T08:13:04.366Z,14.70
2019-03-23T08:14:05.207Z,14.70
2019-03-23T08:15:04.571Z,14.70
2019-03-23T08:16:04.915Z,14.70
2019-03-23T08:17:04.675Z,14.80
2019-03-23T08:18:04.740Z,14.80
2019-03-23T08:19:04.838Z,14.80
2019-03-23T08:20:05.045Z,14.80
2019-03-23T08:21:05.233Z,14.80
2019-03-23T08:22:04.354Z,14.90
2019-03-23T08:23:04.907Z,14.90
2019-03-23T08:24:04.591Z,14.90
2019-03-23T08:25:04.724Z,14.90
2019-03-23T08:26:05.219Z,14.90
2019-03-23T08:27:04.684Z,14.90
2019-03-23T08:28:05.022Z,15.00
2019-03-23T08:29:04.433Z,15.00
2019-03-23T08:30:04.546Z,15.00
2019-03-23T08:31:05.117Z,15.00
2019-03-23T08:32:05.290Z,15.10
2019-03-23T08:33:04.353Z,15.10
2019-03-23T08:34:04.977Z,15.10
2019-03-23T08:35:05.298Z,15.20
2019-03-23T08:36:04.371Z,15.20
2019-03-23T08:37:04.575Z,15.20
2019-03-23T08:38:05.127Z,15.30
2019-03-23T08:39:04.307Z,15.30
2019-03-23T08:40:04.483Z,15.30
2019-03-23T08:41:04.519Z,15.40
2019-03-23T08:42:05.171Z,15.40
2019-03-23T08:43:09.598Z,15.40
2019-03-23T08:44:05.042Z,15.50
2019-03-23T08:45:05.155Z,15.50
2019-03-23T08:46:04.950Z,15.50
2019-03-23T08:47:04.674Z,15.50
2019-03-23T08:48:04.758Z,15.60
2019-03-23T08:49:04.649Z,15.60
2019-03-23T08:50:04.723Z,15.60
2019-03-23T08:51:04.207Z,15.60
2019-03-23T08:52:04.985Z,15.60
2019-03-23T08:53:05.266Z,15.60
2019-03-23T08:54:04.387Z,15.60
2019-03-23T08:55:04.437Z,15.70
2019-03-23T08:56:04.566Z,15.70
2019-03-23T08:57:04.375Z,15.70
2019-03-23T08:58:04.402Z,15.80
2019-03-23T08:59:04.530Z,15.80
2019-03-23T09:00:05.050Z,15.80
2019-03-23T09:01:04.359Z,15.80
2019-03-23T09:02:04.395Z,15.80
2019-03-23T09:03:04.570Z,15.90
2019-03-23T09:04:04.566Z,15.90
2019-03-23T09:05:04.991Z,15.90
2019-03-23T09:06:04.381Z,16.00
2019-03-23T09:07:05.016Z,16.00
2019-03-23T09:08:04.347Z,16.00
2019-03-23T09:09:05.168Z,16.10
2019-03-23T09:10:04.269Z,16.10
2019-03-23T09:11:05.090Z,16.20
2019-03-23T09:12:04.301Z,16.20
2019-03-23T09:13:04.374Z,16.30
2019-03-23T09:14:04.453Z,16.30
2019-03-23T09:15:04.736Z,16.40
2019-03-23T09:16:04.588Z,16.40
2019-03-23T09:17:04.559Z,16.40
2019-03-23T09:18:04.845Z,16.50
2019-03-23T09:19:04.378Z,16.50
2019-03-23T09:20:05.032Z,16.50
2019-03-23T09:21:05.263Z,16.60
2019-03-23T09:22:04.443Z,16.60
2019-03-23T09:23:04.748Z,16.60
2019-03-23T09:24:04.840Z,16.70
2019-03-23T09:25:04.599Z,16.70
2019-03-23T09:26:04.361Z,16.80
2019-03-23T09:27:04.509Z,16.80
2019-03-23T09:28:05.112Z,16.90
2019-03-23T09:29:05.122Z,16.90
2019-03-23T09:30:04.512Z,17.00
2019-03-23T09:31:04.672Z,17.00
2019-03-23T09:32:05.234Z,17.00
2019-03-23T09:33:04.582Z,17.10
2019-03-23T09:34:04.906Z,17.10
2019-03-23T09:35:04.327Z,17.20
2019-03-23T09:36:04.567Z,17.20
2019-03-23T09:37:04.665Z,17.30
2019-03-23T09:38:04.791Z,17.30
2019-03-23T09:39:05.080Z,17.40
2019-03-23T09:40:10.602Z,17.40
2019-03-23T09:41:05.086Z,17.50
2019-03-23T09:42:07.028Z,17.50
2019-03-23T09:43:10.029Z,17.60
2019-03-23T09:44:04.554Z,17.60
2019-03-23T09:45:04.906Z,17.60
2019-03-23T09:46:05.119Z,17.70
2019-03-23T09:47:05.170Z,17.70
2019-03-23T09:48:04.348Z,17.80
2019-03-23T09:49:04.436Z,17.80
2019-03-23T09:50:04.736Z,17.80
2019-03-23T09:51:04.915Z,17.90
2019-03-23T09:52:05.300Z,17.90
2019-03-23T09:53:04.376Z,17.90
2019-03-23T09:54:04.782Z,18.00
2019-03-23T09:55:04.472Z,18.00
2019-03-23T09:56:04.803Z,18.00
2019-03-23T09:57:04.544Z,18.00
2019-03-23T09:58:05.114Z,18.10
2019-03-23T09:59:04.347Z,18.10
2019-03-23T10:00:04.926Z,18.10
2019-03-23T10:01:04.429Z,18.20
2019-03-23T10:02:04.601Z,18.20
2019-03-23T10:03:04.923Z,18.20
2019-03-23T10:04:05.132Z,18.20
2019-03-23T10:05:04.653Z,18.20
2019-03-23T10:06:05.967Z,18.20
2019-03-23T10:07:04.959Z,18.20
2019-03-23T10:08:05.023Z,18.20
2019-03-23T10:09:05.191Z,18.20
2019-03-23T10:10:04.331Z,18.30
2019-03-23T10:11:04.425Z,18.20
2019-03-23T10:12:05.094Z,18.30
2019-03-23T10:13:09.383Z,18.30
2019-03-23T10:14:04.993Z,18.30
2019-03-23T10:15:04.365Z,18.30
2019-03-23T10:16:04.550Z,18.30
2019-03-23T10:17:04.780Z,18.40
2019-03-23T10:18:04.925Z,18.40
2019-03-23T10:19:05.122Z,18.40
2019-03-23T10:20:04.788Z,18.40
2019-03-23T10:21:04.886Z,18.40
2019-03-23T10:22:04.511Z,18.40
2019-03-23T10:23:04.765Z,18.40
2019-03-23T10:24:05.091Z,18.40
2019-03-23T10:25:04.810Z,18.40
2019-03-23T10:26:04.946Z,18.50
2019-03-23T10:27:05.178Z,18.50
2019-03-23T10:28:04.201Z,18.50
2019-03-23T10:29:04.344Z,18.50
2019-03-23T10:30:05.225Z,18.50
2019-03-23T10:31:04.788Z,18.50
2019-03-23T10:32:04.850Z,18.60
2019-03-23T10:33:04.494Z,18.60
2019-03-23T10:34:04.596Z,18.60
2019-03-23T10:35:04.937Z,18.60
2019-03-23T10:36:04.550Z,18.60
2019-03-23T10:37:04.590Z,18.60
2019-03-23T10:38:04.786Z,18.60
2019-03-23T10:39:04.889Z,18.60
2019-03-23T10:40:07.395Z,18.60
2019-03-23T10:41:04.348Z,18.60
2019-03-23T10:42:04.878Z,18.60
2019-03-23T10:43:05.043Z,18.60
2019-03-23T10:44:05.127Z,18.60
2019-03-23T10:45:04.203Z,18.70
2019-03-23T10:46:04.742Z,18.70
2019-03-23T10:47:09.584Z,18.70
2019-03-23T10:48:05.187Z,18.80
2019-03-23T10:49:04.209Z,18.80
2019-03-23T10:50:04.444Z,18.80
2019-03-23T10:51:04.514Z,18.90
2019-03-23T10:52:04.674Z,18.90
2019-03-23T10:53:05.028Z,18.90
2019-03-23T10:54:04.341Z,19.00
2019-03-23T10:55:04.620Z,19.00
2019-03-23T10:56:04.776Z,19.00
2019-03-23T10:57:05.183Z,19.00
2019-03-23T10:58:04.367Z,19.00
2019-03-23T10:59:05.115Z,19.00
2019-03-23T11:00:04.331Z,19.00
2019-03-23T11:01:04.644Z,19.00
2019-03-23T11:02:04.871Z,19.00
2019-03-23T11:03:04.227Z,19.10
2019-03-23T11:04:04.567Z,19.10
2019-03-23T11:05:04.677Z,19.10
2019-03-23T11:06:04.803Z,19.10
2019-03-23T11:07:10.022Z,19.10
2019-03-23T11:08:04.972Z,19.10
2019-03-23T11:09:05.125Z,19.10
2019-03-23T11:10:04.262Z,19.20
2019-03-23T11:11:04.373Z,19.20
2019-03-23T11:12:04.832Z,19.20
2019-03-23T11:13:04.555Z,19.20
2019-03-23T11:14:04.729Z,19.20
2019-03-23T11:15:05.006Z,19.30
2019-03-23T11:16:05.008Z,19.30
2019-03-23T11:17:04.309Z,19.30
2019-03-23T11:18:04.312Z,19.30
2019-03-23T11:19:09.778Z,19.30
2019-03-23T11:20:04.345Z,19.30
2019-03-23T11:21:04.350Z,19.30
2019-03-23T11:22:04.928Z,19.30
2019-03-23T11:23:04.545Z,19.40
2019-03-23T11:24:04.836Z,19.40
2019-03-23T11:25:04.828Z,19.40
2019-03-23T11:26:05.076Z,19.40
2019-03-23T11:27:04.301Z,19.40
2019-03-23T11:28:04.710Z,19.40
2019-03-23T11:29:04.973Z,19.40
2019-03-23T11:30:05.101Z,19.50
2019-03-23T11:31:04.797Z,19.50
2019-03-23T11:32:05.172Z,19.50
2019-03-23T11:33:04.543Z,19.50
2019-03-23T11:34:04.200Z,19.50
2019-03-23T11:35:04.425Z,19.50
2019-03-23T11:36:04.421Z,19.60
2019-03-23T11:37:05.102Z,19.60
2019-03-23T11:38:04.419Z,19.60
2019-03-23T11:39:04.854Z,19.60
2019-03-23T11:40:04.552Z,19.60
2019-03-23T11:41:04.572Z,19.60
2019-03-23T11:42:04.931Z,19.70
2019-03-23T11:43:09.918Z,19.70
2019-03-23T11:44:04.372Z,19.70
2019-03-23T11:45:04.537Z,19.70
2019-03-23T11:46:04.688Z,19.70
2019-03-23T11:47:05.285Z,19.70
2019-03-23T11:48:04.356Z,19.70
2019-03-23T11:49:04.499Z,19.70
2019-03-23T11:50:04.609Z,19.80
2019-03-23T11:51:04.824Z,19.80
2019-03-23T11:52:04.901Z,19.70
2019-03-23T11:53:05.175Z,19.70
2019-03-23T11:54:04.732Z,19.70
2019-03-23T11:55:04.564Z,19.70
2019-03-23T11:56:04.761Z,19.70
2019-03-23T11:57:04.883Z,19.70
2019-03-23T11:58:04.987Z,19.70
2019-03-23T11:59:05.112Z,19.70
2019-03-23T12:00:05.167Z,19.70
2019-03-23T12:01:04.891Z,19.70
2019-03-23T12:02:04.970Z,19.80
2019-03-23T12:03:10.128Z,19.80
2019-03-23T12:04:04.622Z,19.70
2019-03-23T12:05:04.504Z,19.70
2019-03-23T12:06:04.860Z,19.70
2019-03-23T12:07:04.275Z,19.70
2019-03-23T12:08:04.516Z,19.70
2019-03-23T12:09:04.352Z,19.80
2019-03-23T12:10:04.646Z,19.80
2019-03-23T12:11:04.784Z,19.80
2019-03-23T12:12:04.872Z,19.80
2019-03-23T12:13:04.986Z,19.80
2019-03-23T12:14:04.251Z,19.80
2019-03-23T12:15:05.003Z,19.90
2019-03-23T12:16:04.500Z,19.90
2019-03-23T12:17:05.102Z,19.90
2019-03-23T12:18:04.174Z,19.90
2019-03-23T12:19:04.986Z,19.90
2019-03-23T12:20:04.963Z,19.90
2019-03-23T12:21:05.287Z,19.90
2019-03-23T12:22:04.770Z,19.90
2019-03-23T12:23:05.051Z,19.90
2019-03-23T12:24:05.165Z,19.90
2019-03-23T12:25:04.855Z,19.90
2019-03-23T12:26:04.223Z,19.90
2019-03-23T12:27:04.768Z,19.90
2019-03-23T12:28:04.886Z,19.90
2019-03-23T12:29:05.085Z,19.80
2019-03-23T12:30:07.396Z,19.80
2019-03-23T12:31:04.250Z,19.80
2019-03-23T12:32:04.940Z,19.80
2019-03-23T12:33:05.038Z,19.90
2019-03-23T12:34:04.359Z,19.80
2019-03-23T12:35:04.701Z,19.90
2019-03-23T12:36:05.025Z,19.90
2019-03-23T12:37:04.392Z,19.90
2019-03-23T12:38:04.817Z,19.90
2019-03-23T12:39:05.148Z,19.90
2019-03-23T12:40:04.525Z,20.00
2019-03-23T12:41:11.457Z,20.00
2019-03-23T12:42:04.424Z,20.00
2019-03-23T12:43:09.442Z,20.00
2019-03-23T12:44:05.162Z,20.00
2019-03-23T12:45:04.403Z,20.00
2019-03-23T12:46:04.528Z,20.00
2019-03-23T12:47:05.124Z,20.00
2019-03-23T12:48:04.250Z,20.00
2019-03-23T12:49:04.402Z,20.10
2019-03-23T12:50:04.965Z,20.10
2019-03-23T12:51:04.457Z,20.10
2019-03-23T12:52:04.811Z,20.10
2019-03-23T12:53:04.909Z,20.20
2019-03-23T12:54:04.972Z,20.20
2019-03-23T12:55:05.074Z,20.20
2019-03-23T12:56:04.558Z,20.20
2019-03-23T12:57:04.628Z,20.20
2019-03-23T12:58:04.863Z,20.30
2019-03-23T12:59:04.316Z,20.30
2019-03-23T13:00:04.894Z,20.30
2019-03-23T13:01:04.260Z,20.30
2019-03-23T13:02:04.395Z,20.30
2019-03-23T13:03:09.972Z,20.30
2019-03-23T13:04:04.521Z,20.30
2019-03-23T13:05:04.936Z,20.30